sensor_id;sensor_type;location;lat;lon;timestamp;pressure;altitude;pressure_sealevel;temperature;humidity
8717;BME280;4395;48.554;8.820;2023-07-16T00:01:23;95815.41;;;20.31;100.00
8717;BME280;4395;48.554;8.820;2023-07-16T00:03:26;95805.91;;;20.59;100.00
8717;BME280;4395;48.554;8.820;2023-07-16T00:05:29;95795.69;;;20.34;100.00
8717;BME280;4395;48.554;8.820;2023-07-16T00:07:32;95798.03;;;20.18;100.00
8717;BME280;4395;48.554;8.820;2023-07-16T00:09:35;95790.19;;;20.73;100.00
8717;BME280;4395;48.554;8.820;2023-07-16T00:11:39;95781.03;;;20.69;100.00
8717;BME280;4395;48.554;8.820;2023-07-16T00:13:42;95799.47;;;20.15;100.00
8717;BME280;4395;48.554;8.820;2023-07-16T00:15:48;95794.88;;;20.33;100.00
8717;BME280;4395;48.554;8.820;2023-07-16T00:17:51;95806.38;;;19.82;100.00
8717;BME280;4395;48.554;8.820;2023-07-16T00:19:54;95808.44;;;19.76;100.00
8717;BME280;4395;48.554;8.820;2023-07-16T00:21:57;95804.59;;;20.08;100.00
8717;BME280;4395;48.554;8.820;2023-07-16T00:23:59;95808.66;;;19.88;100.00
8717;BME280;4395;48.554;8.820;2023-07-16T00:26:01;95806.88;;;19.84;100.00
8717;BME280;4395;48.554;8.820;2023-07-16T00:28:05;95830.00;;;19.86;100.00
8717;BME280;4395;48.554;8.820;2023-07-16T00:30:09;95839.84;;;19.51;100.00
8717;BME280;4395;48.554;8.820;2023-07-16T00:32:12;95835.88;;;19.35;100.00
8717;BME280;4395;48.554;8.820;2023-07-16T00:34:14;95830.19;;;19.45;100.00
8717;BME280;4395;48.554;8.820;2023-07-16T00:36:18;95824.19;;;19.35;100.00
8717;BME280;4395;48.554;8.820;2023-07-16T00:38:21;95830.22;;;19.68;100.00
8717;BME280;4395;48.554;8.820;2023-07-16T00:40:24;95831.69;;;19.51;100.00
8717;BME280;4395;48.554;8.820;2023-07-16T00:42:27;95825.47;;;19.15;100.00
8717;BME280;4395;48.554;8.820;2023-07-16T00:44:33;95821.34;;;19.40;100.00
8717;BME280;4395;48.554;8.820;2023-07-16T00:46:36;95823.13;;;19.44;100.00
8717;BME280;4395;48.554;8.820;2023-07-16T00:48:40;95836.81;;;19.31;100.00
8717;BME280;4395;48.554;8.820;2023-07-16T00:50:43;95840.09;;;19.19;100.00
8717;BME280;4395;48.554;8.820;2023-07-16T00:52:46;95846.28;;;19.11;100.00
8717;BME280;4395;48.554;8.820;2023-07-16T00:54:49;95854.72;;;19.23;100.00
8717;BME280;4395;48.554;8.820;2023-07-16T00:56:53;95856.06;;;19.12;100.00
8717;BME280;4395;48.554;8.820;2023-07-16T00:58:56;95869.41;;;19.36;100.00
8717;BME280;4395;48.554;8.820;2023-07-16T01:01:01;95866.06;;;19.03;100.00
8717;BME280;4395;48.554;8.820;2023-07-16T01:03:05;95830.75;;;18.20;100.00
8717;BME280;4395;48.554;8.820;2023-07-16T01:05:08;95859.75;;;18.93;100.00
8717;BME280;4395;48.554;8.820;2023-07-16T01:07:13;95867.13;;;18.79;100.00
8717;BME280;4395;48.554;8.820;2023-07-16T01:09:18;95863.69;;;18.87;100.00
8717;BME280;4395;48.554;8.820;2023-07-16T01:11:21;95858.47;;;18.77;100.00
8717;BME280;4395;48.554;8.820;2023-07-16T01:13:24;95878.00;;;18.79;100.00
8717;BME280;4395;48.554;8.820;2023-07-16T01:15:27;95889.03;;;19.10;100.00
8717;BME280;4395;48.554;8.820;2023-07-16T01:17:31;95882.75;;;18.87;100.00
8717;BME280;4395;48.554;8.820;2023-07-16T01:19:35;95867.06;;;19.07;100.00
8717;BME280;4395;48.554;8.820;2023-07-16T01:21:42;95878.84;;;18.66;100.00
8717;BME280;4395;48.554;8.820;2023-07-16T01:24:04;95874.69;;;18.55;100.00
8717;BME280;4395;48.554;8.820;2023-07-16T01:26:30;95879.63;;;18.53;100.00
8717;BME280;4395;48.554;8.820;2023-07-16T01:28:49;95888.09;;;18.79;100.00
8717;BME280;4395;48.554;8.820;2023-07-16T01:30:55;95889.50;;;18.76;100.00
8717;BME280;4395;48.554;8.820;2023-07-16T01:33:01;95893.81;;;18.22;100.00
8717;BME280;4395;48.554;8.820;2023-07-16T01:35:07;95884.88;;;18.63;100.00
8717;BME280;4395;48.554;8.820;2023-07-16T01:37:10;95866.06;;;19.03;100.00
8717;BME280;4395;48.554;8.820;2023-07-16T01:39:12;95882.06;;;19.18;100.00
8717;BME280;4395;48.554;8.820;2023-07-16T01:41:15;95886.56;;;18.86;100.00
8717;BME280;4395;48.554;8.820;2023-07-16T01:43:18;95880.63;;;18.84;100.00
8717;BME280;4395;48.554;8.820;2023-07-16T01:45:21;95860.59;;;18.39;100.00
8717;BME280;4395;48.554;8.820;2023-07-16T01:47:35;95874.38;;;18.56;100.00
8717;BME280;4395;48.554;8.820;2023-07-16T01:49:44;95875.91;;;18.49;100.00
8717;BME280;4395;48.554;8.820;2023-07-16T01:51:48;95872.38;;;18.21;100.00
8717;BME280;4395;48.554;8.820;2023-07-16T01:53:51;95852.38;;;17.98;100.00
8717;BME280;4395;48.554;8.820;2023-07-16T01:55:53;95863.84;;;17.95;100.00
8717;BME280;4395;48.554;8.820;2023-07-16T01:57:56;95859.72;;;18.11;100.00
8717;BME280;4395;48.554;8.820;2023-07-16T01:59:59;95864.31;;;18.29;100.00
8717;BME280;4395;48.554;8.820;2023-07-16T02:02:05;95865.50;;;18.23;100.00
8717;BME280;4395;48.554;8.820;2023-07-16T02:04:09;95861.59;;;18.29;100.00
8717;BME280;4395;48.554;8.820;2023-07-16T02:06:11;95865.69;;;18.13;100.00
8717;BME280;4395;48.554;8.820;2023-07-16T02:08:16;95883.59;;;18.14;100.00
8717;BME280;4395;48.554;8.820;2023-07-16T02:10:19;95891.34;;;18.07;100.00
8717;BME280;4395;48.554;8.820;2023-07-16T02:12:22;95879.44;;;18.36;100.00
8717;BME280;4395;48.554;8.820;2023-07-16T02:14:25;95879.38;;;18.08;100.00
8717;BME280;4395;48.554;8.820;2023-07-16T02:16:27;95863.19;;;18.44;100.00
8717;BME280;4395;48.554;8.820;2023-07-16T02:18:30;95868.03;;;18.47;100.00
8717;BME280;4395;48.554;8.820;2023-07-16T02:20:34;95862.13;;;19.09;100.00
8717;BME280;4395;48.554;8.820;2023-07-16T02:22:37;95866.84;;;19.39;100.00
8717;BME280;4395;48.554;8.820;2023-07-16T02:24:40;95882.03;;;19.32;100.00
8717;BME280;4395;48.554;8.820;2023-07-16T02:26:43;95897.69;;;18.62;100.00
8717;BME280;4395;48.554;8.820;2023-07-16T02:28:46;95906.22;;;18.42;100.00
8717;BME280;4395;48.554;8.820;2023-07-16T02:30:49;95888.81;;;17.97;100.00
8717;BME280;4395;48.554;8.820;2023-07-16T02:32:51;95892.94;;;18.54;100.00
8717;BME280;4395;48.554;8.820;2023-07-16T02:34:54;95894.50;;;18.14;100.00
8717;BME280;4395;48.554;8.820;2023-07-16T02:36:58;95893.72;;;17.81;100.00
8717;BME280;4395;48.554;8.820;2023-07-16T02:39:02;95882.53;;;17.83;100.00
8717;BME280;4395;48.554;8.820;2023-07-16T02:41:05;95890.19;;;17.81;100.00
8717;BME280;4395;48.554;8.820;2023-07-16T02:43:07;95892.66;;;17.96;100.00
8717;BME280;4395;48.554;8.820;2023-07-16T02:45:10;95894.66;;;17.90;100.00
8717;BME280;4395;48.554;8.820;2023-07-16T02:47:13;95906.13;;;17.87;100.00
8717;BME280;4395;48.554;8.820;2023-07-16T02:49:16;95920.44;;;18.39;100.00
8717;BME280;4395;48.554;8.820;2023-07-16T02:51:19;95925.75;;;18.30;100.00
8717;BME280;4395;48.554;8.820;2023-07-16T02:53:23;95924.97;;;18.44;100.00
8717;BME280;4395;48.554;8.820;2023-07-16T02:55:26;95910.03;;;18.27;100.00
8717;BME280;4395;48.554;8.820;2023-07-16T02:57:29;95912.16;;;18.30;100.00
8717;BME280;4395;48.554;8.820;2023-07-16T02:59:31;95926.09;;;18.10;100.00
8717;BME280;4395;48.554;8.820;2023-07-16T03:01:35;95912.31;;;17.55;100.00
8717;BME280;4395;48.554;8.820;2023-07-16T03:03:38;95925.41;;;17.16;100.00
8717;BME280;4395;48.554;8.820;2023-07-16T03:05:41;95934.13;;;17.50;100.00
8717;BME280;4395;48.554;8.820;2023-07-16T03:07:43;95915.59;;;17.90;100.00
8717;BME280;4395;48.554;8.820;2023-07-16T03:09:48;95925.59;;;18.68;100.00
8717;BME280;4395;48.554;8.820;2023-07-16T03:11:50;95910.88;;;18.69;100.00
8717;BME280;4395;48.554;8.820;2023-07-16T03:13:53;95927.78;;;18.52;100.00
8717;BME280;4395;48.554;8.820;2023-07-16T03:15:57;95940.34;;;18.21;100.00
8717;BME280;4395;48.554;8.820;2023-07-16T03:18:00;95927.13;;;18.14;100.00
8717;BME280;4395;48.554;8.820;2023-07-16T03:20:04;95920.31;;;18.30;100.00
8717;BME280;4395;48.554;8.820;2023-07-16T03:22:07;95933.41;;;18.28;100.00
8717;BME280;4395;48.554;8.820;2023-07-16T03:24:10;95932.72;;;18.37;100.00
8717;BME280;4395;48.554;8.820;2023-07-16T03:26:15;95940.38;;;18.35;100.00
8717;BME280;4395;48.554;8.820;2023-07-16T03:28:18;95957.13;;;18.09;100.00
8717;BME280;4395;48.554;8.820;2023-07-16T03:30:21;95968.50;;;17.79;100.00
8717;BME280;4395;48.554;8.820;2023-07-16T03:32:24;95952.72;;;17.81;100.00
8717;BME280;4395;48.554;8.820;2023-07-16T03:34:38;95967.03;;;17.86;100.00
8717;BME280;4395;48.554;8.820;2023-07-16T03:36:41;95969.41;;;17.74;100.00
8717;BME280;4395;48.554;8.820;2023-07-16T03:38:44;95988.03;;;17.81;100.00
8717;BME280;4395;48.554;8.820;2023-07-16T03:40:48;95996.47;;;17.60;100.00
8717;BME280;4395;48.554;8.820;2023-07-16T03:42:52;95998.03;;;17.66;100.00
8717;BME280;4395;48.554;8.820;2023-07-16T03:44:54;96013.50;;;17.47;100.00
8717;BME280;4395;48.554;8.820;2023-07-16T03:46:57;96008.00;;;17.52;100.00
8717;BME280;4395;48.554;8.820;2023-07-16T03:49:01;96011.38;;;17.63;100.00
8717;BME280;4395;48.554;8.820;2023-07-16T03:51:04;95998.81;;;17.48;100.00
8717;BME280;4395;48.554;8.820;2023-07-16T03:53:07;95992.53;;;17.72;100.00
8717;BME280;4395;48.554;8.820;2023-07-16T03:55:10;95984.66;;;17.51;100.00
8717;BME280;4395;48.554;8.820;2023-07-16T03:57:12;95981.94;;;17.51;100.00
8717;BME280;4395;48.554;8.820;2023-07-16T03:59:17;95984.00;;;17.59;100.00
8717;BME280;4395;48.554;8.820;2023-07-16T04:01:20;95971.13;;;17.65;100.00
8717;BME280;4395;48.554;8.820;2023-07-16T04:03:23;95963.97;;;17.74;100.00
8717;BME280;4395;48.554;8.820;2023-07-16T04:05:26;95965.28;;;17.39;100.00
8717;BME280;4395;48.554;8.820;2023-07-16T04:07:29;95972.91;;;17.75;100.00
8717;BME280;4395;48.554;8.820;2023-07-16T04:09:32;95972.53;;;17.81;100.00
8717;BME280;4395;48.554;8.820;2023-07-16T04:11:34;95986.06;;;17.49;100.00
8717;BME280;4395;48.554;8.820;2023-07-16T04:13:37;95991.13;;;17.36;100.00
8717;BME280;4395;48.554;8.820;2023-07-16T04:15:41;96002.47;;;17.20;100.00
8717;BME280;4395;48.554;8.820;2023-07-16T04:17:44;96022.53;;;17.24;100.00
8717;BME280;4395;48.554;8.820;2023-07-16T04:19:47;96015.72;;;17.64;100.00
8717;BME280;4395;48.554;8.820;2023-07-16T04:21:50;96016.31;;;17.61;100.00
8717;BME280;4395;48.554;8.820;2023-07-16T04:23:53;96013.94;;;17.35;100.00
8717;BME280;4395;48.554;8.820;2023-07-16T04:25:55;96021.06;;;17.50;100.00
8717;BME280;4395;48.554;8.820;2023-07-16T04:27:58;96039.88;;;17.65;100.00
8717;BME280;4395;48.554;8.820;2023-07-16T04:30:01;96035.91;;;18.14;100.00
8717;BME280;4395;48.554;8.820;2023-07-16T04:32:06;96031.34;;;18.28;100.00
8717;BME280;4395;48.554;8.820;2023-07-16T04:34:09;96056.66;;;17.73;100.00
8717;BME280;4395;48.554;8.820;2023-07-16T04:36:12;96053.22;;;17.67;100.00
8717;BME280;4395;48.554;8.820;2023-07-16T04:38:15;96037.97;;;18.22;100.00
8717;BME280;4395;48.554;8.820;2023-07-16T04:40:18;96043.94;;;18.24;100.00
8717;BME280;4395;48.554;8.820;2023-07-16T04:42:20;96056.00;;;18.51;100.00
8717;BME280;4395;48.554;8.820;2023-07-16T04:44:23;96050.44;;;19.16;100.00
8717;BME280;4395;48.554;8.820;2023-07-16T04:46:26;96059.31;;;19.49;100.00
8717;BME280;4395;48.554;8.820;2023-07-16T04:48:30;96051.03;;;19.40;100.00
8717;BME280;4395;48.554;8.820;2023-07-16T04:50:33;96048.53;;;19.57;100.00
8717;BME280;4395;48.554;8.820;2023-07-16T04:52:37;96065.53;;;19.77;100.00
8717;BME280;4395;48.554;8.820;2023-07-16T04:54:39;96059.91;;;19.73;100.00
8717;BME280;4395;48.554;8.820;2023-07-16T04:56:42;96052.84;;;19.58;100.00
8717;BME280;4395;48.554;8.820;2023-07-16T04:58:45;96052.31;;;20.29;100.00
8717;BME280;4395;48.554;8.820;2023-07-16T05:00:48;96055.69;;;20.70;100.00
8717;BME280;4395;48.554;8.820;2023-07-16T05:02:51;96072.19;;;20.88;100.00
8717;BME280;4395;48.554;8.820;2023-07-16T05:04:55;96083.66;;;20.31;100.00
8717;BME280;4395;48.554;8.820;2023-07-16T05:06:57;96069.41;;;19.21;100.00
8717;BME280;4395;48.554;8.820;2023-07-16T05:08:59;96070.03;;;19.59;100.00
8717;BME280;4395;48.554;8.820;2023-07-16T05:11:02;96067.34;;;19.81;100.00
8717;BME280;4395;48.554;8.820;2023-07-16T05:13:05;96062.44;;;19.56;100.00
8717;BME280;4395;48.554;8.820;2023-07-16T05:15:08;96056.59;;;19.99;100.00
8717;BME280;4395;48.554;8.820;2023-07-16T05:17:11;96064.38;;;19.14;100.00
8717;BME280;4395;48.554;8.820;2023-07-16T05:19:13;96063.59;;;18.35;100.00
8717;BME280;4395;48.554;8.820;2023-07-16T05:21:18;96070.09;;;18.20;100.00
8717;BME280;4395;48.554;8.820;2023-07-16T05:23:20;96065.75;;;18.19;100.00
8717;BME280;4395;48.554;8.820;2023-07-16T05:25:24;96062.66;;;18.26;100.00
8717;BME280;4395;48.554;8.820;2023-07-16T05:27:27;96062.78;;;18.35;100.00
8717;BME280;4395;48.554;8.820;2023-07-16T05:29:30;96074.69;;;18.39;100.00
8717;BME280;4395;48.554;8.820;2023-07-16T05:31:32;96083.25;;;17.76;100.00
8717;BME280;4395;48.554;8.820;2023-07-16T05:33:35;96080.59;;;17.71;100.00
8717;BME280;4395;48.554;8.820;2023-07-16T05:35:38;96077.88;;;17.71;100.00
8717;BME280;4395;48.554;8.820;2023-07-16T05:37:43;96084.72;;;17.68;100.00
8717;BME280;4395;48.554;8.820;2023-07-16T05:39:45;96057.56;;;17.44;100.00
8717;BME280;4395;48.554;8.820;2023-07-16T05:41:48;96080.56;;;17.52;100.00
8717;BME280;4395;48.554;8.820;2023-07-16T05:43:51;96086.03;;;18.27;100.00
8717;BME280;4395;48.554;8.820;2023-07-16T05:45:54;96081.75;;;18.40;100.00
8717;BME280;4395;48.554;8.820;2023-07-16T05:47:57;96075.53;;;18.02;100.00
8717;BME280;4395;48.554;8.820;2023-07-16T05:49:59;96062.63;;;18.45;100.00
8717;BME280;4395;48.554;8.820;2023-07-16T05:52:03;96066.78;;;18.23;100.00
8717;BME280;4395;48.554;8.820;2023-07-16T05:54:07;96065.06;;;17.52;100.00
8717;BME280;4395;48.554;8.820;2023-07-16T05:56:10;96067.78;;;17.10;100.00
8717;BME280;4395;48.554;8.820;2023-07-16T05:58:13;96092.44;;;16.89;100.00
8717;BME280;4395;48.554;8.820;2023-07-16T06:00:15;96113.00;;;16.95;100.00
8717;BME280;4395;48.554;8.820;2023-07-16T06:02:18;96096.59;;;17.06;100.00
8717;BME280;4395;48.554;8.820;2023-07-16T06:04:21;96104.31;;;16.93;100.00
8717;BME280;4395;48.554;8.820;2023-07-16T06:06:24;96086.41;;;16.92;100.00
8717;BME280;4395;48.554;8.820;2023-07-16T06:08:27;96071.34;;;17.05;100.00
8717;BME280;4395;48.554;8.820;2023-07-16T06:10:33;96072.53;;;16.70;100.00
8717;BME280;4395;48.554;8.820;2023-07-16T06:12:36;96072.44;;;16.80;100.00
8717;BME280;4395;48.554;8.820;2023-07-16T06:14:40;96093.16;;;16.71;100.00
8717;BME280;4395;48.554;8.820;2023-07-16T06:16:42;96091.38;;;16.85;100.00
8717;BME280;4395;48.554;8.820;2023-07-16T06:18:45;96085.16;;;17.09;100.00
8717;BME280;4395;48.554;8.820;2023-07-16T06:20:48;96092.44;;;17.13;100.00
8717;BME280;4395;48.554;8.820;2023-07-16T06:22:50;96082.56;;;17.22;100.00
8717;BME280;4395;48.554;8.820;2023-07-16T06:24:53;96081.69;;;17.27;100.00
8717;BME280;4395;48.554;8.820;2023-07-16T06:26:57;96089.25;;;16.82;100.00
8717;BME280;4395;48.554;8.820;2023-07-16T06:29:00;96084.53;;;17.17;100.00
8717;BME280;4395;48.554;8.820;2023-07-16T06:31:02;96076.50;;;17.07;100.00
8717;BME280;4395;48.554;8.820;2023-07-16T06:33:05;96076.66;;;17.58;100.00
8717;BME280;4395;48.554;8.820;2023-07-16T06:35:08;96076.56;;;17.68;100.00
8717;BME280;4395;48.554;8.820;2023-07-16T06:37:11;96096.84;;;17.76;100.00
8717;BME280;4395;48.554;8.820;2023-07-16T06:39:14;96094.69;;;17.06;100.00
8717;BME280;4395;48.554;8.820;2023-07-16T06:41:17;96093.94;;;17.00;100.00
8717;BME280;4395;48.554;8.820;2023-07-16T06:43:21;96119.72;;;17.27;100.00
8717;BME280;4395;48.554;8.820;2023-07-16T06:45:24;96127.44;;;17.39;100.00
8717;BME280;4395;48.554;8.820;2023-07-16T06:47:26;96118.81;;;17.55;100.00
8717;BME280;4395;48.554;8.820;2023-07-16T06:49:29;96113.81;;;17.67;100.00
8717;BME280;4395;48.554;8.820;2023-07-16T06:51:32;96106.22;;;17.41;100.00
8717;BME280;4395;48.554;8.820;2023-07-16T06:53:35;96103.38;;;17.51;100.00
8717;BME280;4395;48.554;8.820;2023-07-16T06:55:38;96099.19;;;18.01;100.00
8717;BME280;4395;48.554;8.820;2023-07-16T06:57:41;96091.47;;;18.08;100.00
8717;BME280;4395;48.554;8.820;2023-07-16T06:59:45;96089.34;;;18.05;100.00
8717;BME280;4395;48.554;8.820;2023-07-16T07:01:48;96089.06;;;18.58;100.00
8717;BME280;4395;48.554;8.820;2023-07-16T07:03:51;96091.16;;;18.80;100.00
8717;BME280;4395;48.554;8.820;2023-07-16T07:05:55;96078.69;;;18.60;100.00
8717;BME280;4395;48.554;8.820;2023-07-16T07:07:57;96090.03;;;18.67;100.00
8717;BME280;4395;48.554;8.820;2023-07-16T07:10:00;96100.75;;;18.58;100.00
8717;BME280;4395;48.554;8.820;2023-07-16T07:12:04;96098.19;;;18.67;100.00
8717;BME280;4395;48.554;8.820;2023-07-16T07:14:07;96103.81;;;18.38;100.00
8717;BME280;4395;48.554;8.820;2023-07-16T07:16:13;96111.34;;;18.92;100.00
8717;BME280;4395;48.554;8.820;2023-07-16T07:18:17;96104.94;;;19.43;100.00
8717;BME280;4395;48.554;8.820;2023-07-16T07:20:19;96112.00;;;19.72;100.00
8717;BME280;4395;48.554;8.820;2023-07-16T07:22:22;96119.66;;;19.15;100.00
8717;BME280;4395;48.554;8.820;2023-07-16T07:24:25;96107.72;;;18.97;100.00
8717;BME280;4395;48.554;8.820;2023-07-16T07:26:28;96121.38;;;19.24;100.00
8717;BME280;4395;48.554;8.820;2023-07-16T07:28:31;96129.09;;;18.90;100.00
8717;BME280;4395;48.554;8.820;2023-07-16T07:30:34;96118.81;;;18.87;100.00
8717;BME280;4395;48.554;8.820;2023-07-16T07:32:38;96126.00;;;18.97;100.00
8717;BME280;4395;48.554;8.820;2023-07-16T07:34:41;96124.91;;;19.11;100.00
8717;BME280;4395;48.554;8.820;2023-07-16T07:36:44;96119.06;;;18.72;100.00
8717;BME280;4395;48.554;8.820;2023-07-16T07:38:46;96113.53;;;18.77;100.00
8717;BME280;4395;48.554;8.820;2023-07-16T07:40:49;96118.06;;;18.49;100.00
8717;BME280;4395;48.554;8.820;2023-07-16T07:42:51;96114.00;;;19.11;100.00
8717;BME280;4395;48.554;8.820;2023-07-16T07:44:54;96119.75;;;19.10;100.00
8717;BME280;4395;48.554;8.820;2023-07-16T07:46:57;96126.69;;;18.88;100.00
8717;BME280;4395;48.554;8.820;2023-07-16T07:49:01;96128.53;;;19.20;100.00
8717;BME280;4395;48.554;8.820;2023-07-16T07:51:04;96130.44;;;19.06;100.00
8717;BME280;4395;48.554;8.820;2023-07-16T07:53:07;96126.34;;;18.76;100.00
8717;BME280;4395;48.554;8.820;2023-07-16T07:55:09;96121.88;;;19.26;100.00
8717;BME280;4395;48.554;8.820;2023-07-16T07:57:12;96125.63;;;19.72;100.00
8717;BME280;4395;48.554;8.820;2023-07-16T07:59:18;96131.38;;;19.84;100.00
8717;BME280;4395;48.554;8.820;2023-07-16T08:01:21;96130.34;;;19.94;100.00
8717;BME280;4395;48.554;8.820;2023-07-16T08:03:24;96125.03;;;19.61;100.00
8717;BME280;4395;48.554;8.820;2023-07-16T08:05:29;96120.06;;;19.36;100.00
8717;BME280;4395;48.554;8.820;2023-07-16T08:07:31;96114.25;;;20.06;100.00
8717;BME280;4395;48.554;8.820;2023-07-16T08:09:34;96111.41;;;20.11;100.00
8717;BME280;4395;48.554;8.820;2023-07-16T08:11:37;96107.66;;;19.43;100.00
8717;BME280;4395;48.554;8.820;2023-07-16T08:13:40;96099.50;;;19.57;100.00
8717;BME280;4395;48.554;8.820;2023-07-16T08:15:42;96095.03;;;19.20;100.00
8717;BME280;4395;48.554;8.820;2023-07-16T08:17:45;96098.47;;;19.67;100.00
8717;BME280;4395;48.554;8.820;2023-07-16T08:19:47;96092.97;;;19.94;100.00
8717;BME280;4395;48.554;8.820;2023-07-16T08:21:51;96106.09;;;20.28;100.00
8717;BME280;4395;48.554;8.820;2023-07-16T08:23:54;96117.19;;;20.32;100.00
8717;BME280;4395;48.554;8.820;2023-07-16T08:25:57;96110.78;;;20.14;100.00
8717;BME280;4395;48.554;8.820;2023-07-16T08:28:02;96099.72;;;20.33;100.00
8717;BME280;4395;48.554;8.820;2023-07-16T08:30:06;96108.38;;;20.12;100.00
8717;BME280;4395;48.554;8.820;2023-07-16T08:32:09;96111.28;;;19.80;100.00
8717;BME280;4395;48.554;8.820;2023-07-16T08:34:12;96113.81;;;19.63;100.00
8717;BME280;4395;48.554;8.820;2023-07-16T08:36:15;96110.28;;;19.62;100.00
8717;BME280;4395;48.554;8.820;2023-07-16T08:38:18;96108.28;;;19.68;100.00
8717;BME280;4395;48.554;8.820;2023-07-16T08:40:21;96113.41;;;19.69;100.00
8717;BME280;4395;48.554;8.820;2023-07-16T08:42:24;96112.81;;;19.72;100.00
8717;BME280;4395;48.554;8.820;2023-07-16T08:44:27;96115.19;;;20.01;100.00
8717;BME280;4395;48.554;8.820;2023-07-16T08:46:31;96125.84;;;20.11;100.00
8717;BME280;4395;48.554;8.820;2023-07-16T08:48:34;96120.09;;;20.13;100.00
8717;BME280;4395;48.554;8.820;2023-07-16T08:50:38;96129.31;;;20.03;100.00
8717;BME280;4395;48.554;8.820;2023-07-16T08:52:41;96122.91;;;20.21;100.00
8717;BME280;4395;48.554;8.820;2023-07-16T08:54:46;96117.69;;;20.34;100.00
8717;BME280;4395;48.554;8.820;2023-07-16T08:56:49;96123.91;;;20.26;100.00
8717;BME280;4395;48.554;8.820;2023-07-16T08:58:54;96130.03;;;20.90;100.00
8717;BME280;4395;48.554;8.820;2023-07-16T09:00:59;96136.09;;;20.42;100.00
8717;BME280;4395;48.554;8.820;2023-07-16T09:03:03;96130.41;;;20.52;100.00
8717;BME280;4395;48.554;8.820;2023-07-16T09:05:07;96118.22;;;21.03;99.80
8717;BME280;4395;48.554;8.820;2023-07-16T09:07:28;96134.63;;;20.80;98.59
8717;BME280;4395;48.554;8.820;2023-07-16T09:09:31;96122.69;;;20.99;95.11
8717;BME280;4395;48.554;8.820;2023-07-16T09:11:35;96086.31;;;21.21;95.89
8717;BME280;4395;48.554;8.820;2023-07-16T09:13:43;96125.66;;;21.11;96.75
8717;BME280;4395;48.554;8.820;2023-07-16T09:15:50;96121.66;;;21.48;92.57
8717;BME280;4395;48.554;8.820;2023-07-16T09:17:54;96120.22;;;21.50;94.77
8717;BME280;4395;48.554;8.820;2023-07-16T09:19:57;96120.53;;;21.18;91.84
8717;BME280;4395;48.554;8.820;2023-07-16T09:22:00;96116.59;;;21.02;95.45
8717;BME280;4395;48.554;8.820;2023-07-16T09:24:06;96134.34;;;21.13;95.20
8717;BME280;4395;48.554;8.820;2023-07-16T09:26:09;96132.13;;;20.93;92.95
8717;BME280;4395;48.554;8.820;2023-07-16T09:28:14;96124.63;;;20.76;92.70
8717;BME280;4395;48.554;8.820;2023-07-16T09:30:16;96119.03;;;21.34;93.87
8717;BME280;4395;48.554;8.820;2023-07-16T09:32:19;96114.34;;;21.83;90.54
8717;BME280;4395;48.554;8.820;2023-07-16T09:34:22;96105.53;;;21.95;89.08
8717;BME280;4395;48.554;8.820;2023-07-16T09:36:25;96110.78;;;21.74;89.94
8717;BME280;4395;48.554;8.820;2023-07-16T09:38:31;96114.53;;;21.95;90.58
8717;BME280;4395;48.554;8.820;2023-07-16T09:40:35;96118.63;;;21.58;90.40
8717;BME280;4395;48.554;8.820;2023-07-16T09:42:39;96115.31;;;21.87;91.10
8717;BME280;4395;48.554;8.820;2023-07-16T09:44:44;96110.78;;;21.74;88.81
8717;BME280;4395;48.554;8.820;2023-07-16T09:46:47;96116.63;;;21.98;88.39
8717;BME280;4395;48.554;8.820;2023-07-16T09:48:50;96115.66;;;21.86;83.27
8717;BME280;4395;48.554;8.820;2023-07-16T09:50:53;96123.28;;;22.40;84.63
8717;BME280;4395;48.554;8.820;2023-07-16T09:52:56;96112.97;;;22.46;84.55
8717;BME280;4395;48.554;8.820;2023-07-16T09:55:01;96104.44;;;22.39;85.76
8717;BME280;4395;48.554;8.820;2023-07-16T09:57:06;96107.66;;;22.24;85.02
8717;BME280;4395;48.554;8.820;2023-07-16T09:59:13;96078.69;;;22.05;87.33
8717;BME280;4395;48.554;8.820;2023-07-16T10:01:18;96108.59;;;22.71;88.98
8717;BME280;4395;48.554;8.820;2023-07-16T10:03:21;96090.75;;;22.48;85.18
8717;BME280;4395;48.554;8.820;2023-07-16T10:05:26;96117.16;;;22.09;85.77
8717;BME280;4395;48.554;8.820;2023-07-16T10:07:32;96127.16;;;22.57;85.00
8717;BME280;4395;48.554;8.820;2023-07-16T10:09:37;96119.91;;;22.52;84.95
8717;BME280;4395;48.554;8.820;2023-07-16T10:11:40;96124.84;;;23.10;83.09
8717;BME280;4395;48.554;8.820;2023-07-16T10:13:48;96117.00;;;22.57;81.62
8717;BME280;4395;48.554;8.820;2023-07-16T10:15:53;96106.22;;;22.61;82.39
8717;BME280;4395;48.554;8.820;2023-07-16T10:17:56;96107.19;;;22.56;82.61
8717;BME280;4395;48.554;8.820;2023-07-16T10:20:00;96099.31;;;22.29;86.32
8717;BME280;4395;48.554;8.820;2023-07-16T10:22:06;96107.09;;;23.08;86.32
8717;BME280;4395;48.554;8.820;2023-07-16T10:24:16;96104.59;;;23.32;76.63
8717;BME280;4395;48.554;8.820;2023-07-16T10:26:26;96110.06;;;22.60;85.74
8717;BME280;4395;48.554;8.820;2023-07-16T10:28:29;96097.63;;;22.97;84.25
8717;BME280;4395;48.554;8.820;2023-07-16T10:30:33;96109.28;;;22.42;84.48
8717;BME280;4395;48.554;8.820;2023-07-16T10:32:36;96098.75;;;22.96;83.08
8717;BME280;4395;48.554;8.820;2023-07-16T10:34:41;96100.22;;;23.40;77.26
8717;BME280;4395;48.554;8.820;2023-07-16T10:36:44;96095.50;;;23.87;80.66
8717;BME280;4395;48.554;8.820;2023-07-16T10:38:47;96108.75;;;23.85;77.83
8717;BME280;4395;48.554;8.820;2023-07-16T10:40:50;96106.19;;;23.80;77.56
8717;BME280;4395;48.554;8.820;2023-07-16T10:42:53;96094.88;;;23.82;80.15
8717;BME280;4395;48.554;8.820;2023-07-16T10:44:58;96103.75;;;24.08;78.92
8717;BME280;4395;48.554;8.820;2023-07-16T10:47:01;96104.84;;;24.16;79.35
8717;BME280;4395;48.554;8.820;2023-07-16T10:49:04;96102.34;;;24.23;74.48
8717;BME280;4395;48.554;8.820;2023-07-16T10:51:09;96098.44;;;24.86;69.62
8717;BME280;4395;48.554;8.820;2023-07-16T10:53:12;96100.56;;;25.02;69.50
8717;BME280;4395;48.554;8.820;2023-07-16T10:55:15;96105.91;;;25.55;66.01
8717;BME280;4395;48.554;8.820;2023-07-16T10:57:17;96091.56;;;24.59;70.46
8717;BME280;4395;48.554;8.820;2023-07-16T10:59:21;96101.81;;;25.04;65.54
8717;BME280;4395;48.554;8.820;2023-07-16T11:01:23;96105.97;;;25.10;67.69
8717;BME280;4395;48.554;8.820;2023-07-16T11:03:27;96095.72;;;25.80;65.51
8717;BME280;4395;48.554;8.820;2023-07-16T11:05:30;96099.75;;;26.07;61.42